Singleton, New South Wales

2:50 AM AEDT on January 26, 2015 (GMT +1100)
Singleton High School | Change Station
CLOSE
Current Station
Personal Weather Station
Location: SINGLETON, NSW
Elevation: 148 ft
Nearby Weather Stations

Elev 148 ft 32.57 °S, 151.18 °E | Updated 5 hours ago

Overcast
Overcast
84.7 °F
Feels Like 89 °F
N
0.0
Wind Variable Wind from SE
Gusts 0.0 mph

Today
High -- | Low -- °F
--% Chance of Precip.
Yesterday
High -- | Low -- °F
Precip. -- in
6:12 AM 8:02 PM
Waxing Crescent, 33% visible
Pressure 29.77 in
Visibility 6.2 miles
Clouds Mostly Cloudy 900 ft
Overcast 1700 ft
Heat Index 89 °F
Dew Point 70.2 °F
Humidity 62%
Rainfall 0.38 in
Snow Depth Not available.
UV 0 out of 12
Pollen Not available.
Air Quality Not available.
Flu Activity Not available.
SPECI YWLM 251530Z AUTO 18014KT 9999 // BKN009 OVC017 23/21 Q1008

More Conditions Fewer Conditions

Pressure 29.77 in
Visibility 6.2 miles
Clouds Mostly Cloudy 900 ft
Overcast 1700 ft
Heat Index 89 °F
Dew Point 70.2 °F
Humidity 62%
Rainfall 0.38 in
Snow Depth Not available.
UV 0 out of 12
Pollen Not available.
Air Quality Not available.
Flu Activity Not available.
SPECI YWLM 251530Z AUTO 18014KT 9999 // BKN009 OVC017 23/21 Q1008

More Conditions Fewer Conditions

10-Day Weather Forecast

Almanac

Astronomy

Jan. 26, 2015 Rise Set
Actual Time
Civil Twilight
Nautical Twilight
Astronomical Twilight
Moon
Length of Visible Light
Length of Day
Tomorrow will be .
, % of the Moon is Illuminated

Today's Extremes

Country Highs Country Lows

Community

WunderPhotos

Upload Photos

1,789,926 photos uploaded!

WunderBlogs® & News

Nearby

Air Quality

  Air Quality AQ Index Pollutant
Not available.

Snow Depth

Station Depth Elevation

Earthquake Activity

City Distance Mag. Time & Date
Minimum magnitude displayed is 2.5.

Coastal Water Temperatures

Place Temperature

Nearby Weather Stations